Time;durP1;ratioP1;P1;durP2;ratioP2;P2;SDS_P1;SDS_P2;PMS_P1;PMS_P2;Temp;Humidity;BMP_temperature;BMP_pressure;BME280_temperature;BME280_humidity;BME280_pressure;Samples;Min_cycle;Max_cycle;Signal;HPM_P1;HPM_P2
2021/11/13 00:00:31;;;;;;;26.33;16.83;;;5.10;99.90;;;;;;5034007;28;20264;-58
2021/11/13 00:02:58;;;;;;;27.13;17.57;;;5.20;99.90;;;;;;5034208;28;20222;-58
2021/11/13 00:05:25;;;;;;;41.50;16.70;;;5.20;99.90;;;;;;5033951;28;20211;-59
2021/11/13 00:07:52;;;;;;;59.93;17.80;;;5.10;99.90;;;;;;5033866;28;20205;-58
2021/11/13 00:10:26;;;;;;;37.53;16.67;;;5.00;99.90;;;;;;5033992;28;20233;-57
2021/11/13 00:12:53;;;;;;;53.13;15.37;;;5.00;99.90;;;;;;5033676;28;20662;-58
2021/11/13 00:15:21;;;;;;;35.20;18.73;;;4.80;99.90;;;;;;5033684;28;20210;-58
2021/11/13 00:17:48;;;;;;;38.10;18.47;;;4.50;99.90;;;;;;5033488;28;20261;-59
2021/11/13 00:20:15;;;;;;;26.23;17.70;;;4.60;99.90;;;;;;5033837;28;20590;-59
2021/11/13 00:22:42;;;;;;;51.43;20.53;;;4.70;99.90;;;;;;5033773;28;20264;-59
2021/11/13 00:25:09;;;;;;;36.53;19.17;;;4.90;99.90;;;;;;5033303;28;20272;-59
2021/11/13 00:27:38;;;;;;;53.40;18.80;;;5.00;99.90;;;;;;5033404;28;20206;-59
2021/11/13 00:30:05;;;;;;;61.63;28.33;;;5.10;99.90;;;;;;5033276;28;20634;-59
2021/11/13 00:32:32;;;;;;;69.43;25.23;;;5.10;99.90;;;;;;5033210;28;20257;-59
2021/11/13 00:34:59;;;;;;;35.97;17.67;;;5.20;99.90;;;;;;5033282;28;20217;-59
2021/11/13 00:37:26;;;;;;;40.03;21.63;;;5.30;99.90;;;;;;5033240;28;20233;-59
2021/11/13 00:39:53;;;;;;;42.57;17.43;;;5.40;99.90;;;;;;5033113;28;20265;-58
2021/11/13 00:42:19;;;;;;;55.93;17.10;;;5.40;99.90;;;;;;5033415;28;20206;-59
2021/11/13 00:44:48;;;;;;;53.83;16.37;;;5.50;99.90;;;;;;5032848;28;20210;-59
2021/11/13 00:47:15;;;;;;;71.93;21.37;;;5.60;99.90;;;;;;5033273;28;20209;-59
2021/11/13 00:49:42;;;;;;;37.33;17.30;;;5.70;99.90;;;;;;5032781;28;20718;-59
2021/11/13 00:52:08;;;;;;;24.50;16.43;;;5.70;99.90;;;;;;5033167;28;20210;-59
2021/11/13 00:54:38;;;;;;;35.00;14.77;;;5.70;99.90;;;;;;5032859;28;20560;-59
2021/11/13 00:57:07;;;;;;;22.87;15.17;;;5.70;99.90;;;;;;5033083;28;20234;-58
2021/11/13 00:59:34;;;;;;;24.87;14.97;;;5.70;99.90;;;;;;5032220;28;20258;-59
2021/11/13 01:02:03;;;;;;;24.97;14.00;;;5.70;99.90;;;;;;5033009;28;20293;-59
2021/11/13 01:04:29;;;;;;;20.43;13.60;;;5.80;99.90;;;;;;5032920;28;20213;-59
2021/11/13 01:06:56;;;;;;;25.27;13.30;;;5.60;99.90;;;;;;5032803;28;20581;-58
2021/11/13 01:09:23;;;;;;;26.43;13.70;;;5.80;99.90;;;;;;5032478;28;20230;-59
2021/11/13 01:11:50;;;;;;;17.77;13.37;;;5.70;99.90;;;;;;5032613;28;20206;-59
2021/11/13 01:14:17;;;;;;;21.10;13.27;;;5.70;99.90;;;;;;5032640;28;20206;-58
2021/11/13 01:16:43;;;;;;;19.03;13.07;;;5.60;99.90;;;;;;5032685;28;20222;-58
2021/11/13 01:19:11;;;;;;;33.03;13.70;;;5.60;99.90;;;;;;5032616;28;20230;-59
2021/11/13 01:21:38;;;;;;;18.67;12.37;;;5.70;99.90;;;;;;5032751;28;20210;-59
2021/11/13 01:24:06;;;;;;;20.53;13.27;;;5.80;99.90;;;;;;5032461;28;20206;-58
2021/11/13 01:26:33;;;;;;;28.10;13.40;;;5.80;99.90;;;;;;5032328;28;20205;-58
2021/11/13 01:28:59;;;;;;;19.57;13.83;;;5.70;99.90;;;;;;5032475;28;20202;-59
2021/11/13 01:31:26;;;;;;;29.50;14.23;;;5.60;99.90;;;;;;5032103;28;20677;-59
2021/11/13 01:33:56;;;;;;;23.90;13.23;;;5.70;99.90;;;;;;5032046;28;20690;-58
2021/11/13 01:36:25;;;;;;;28.50;13.60;;;5.60;99.90;;;;;;5032520;28;20206;-58
2021/11/13 01:38:54;;;;;;;28.30;14.10;;;5.50;99.90;;;;;;5032419;28;20210;-59
2021/11/13 01:41:21;;;;;;;38.13;14.13;;;5.50;99.90;;;;;;5033250;28;20727;-58
2021/11/13 01:43:48;;;;;;;31.93;14.13;;;5.60;99.90;;;;;;5032195;28;20210;-59
2021/11/13 01:46:15;;;;;;;40.80;15.00;;;5.70;99.90;;;;;;5032438;28;20206;-59
2021/11/13 01:48:41;;;;;;;55.13;19.37;;;5.70;99.90;;;;;;5032352;28;20207;-59
2021/11/13 01:51:17;;;;;;;36.30;15.13;;;5.80;99.90;;;;;;5032179;28;20238;-59
2021/11/13 01:53:46;;;;;;;31.40;15.77;;;5.80;99.90;;;;;;5031920;28;20214;-58
2021/11/13 01:56:17;;;;;;;34.90;15.50;;;5.80;99.90;;;;;;5032326;28;20237;-58
2021/11/13 01:58:44;;;;;;;37.67;15.07;;;5.80;99.90;;;;;;5031768;28;20234;-59
2021/11/13 02:01:11;;;;;;;50.27;15.80;;;5.70;99.90;;;;;;5031788;28;20206;-59
2021/11/13 02:03:38;;;;;;;34.40;15.10;;;5.70;99.90;;;;;;5031707;28;20209;-59
2021/11/13 02:06:05;;;;;;;48.60;15.97;;;5.80;99.90;;;;;;5031626;28;20207;-59
2021/11/13 02:08:32;;;;;;;31.90;16.23;;;5.90;99.90;;;;;;5033407;28;20229;-59
2021/11/13 02:11:00;;;;;;;56.10;36.90;;;5.90;99.90;;;;;;5031932;28;20233;-59
2021/11/13 02:13:27;;;;;;;63.07;17.53;;;5.90;99.90;;;;;;5031440;28;20206;-59
2021/11/13 02:15:54;;;;;;;25.17;14.43;;;5.90;99.90;;;;;;5031601;28;20209;-59
2021/11/13 02:18:20;;;;;;;35.17;15.13;;;5.90;99.90;;;;;;5031187;28;20226;-59
2021/11/13 02:20:49;;;;;;;33.97;16.10;;;5.90;99.90;;;;;;5031250;28;20234;-59
2021/11/13 02:23:19;;;;;;;32.20;15.37;;;5.90;99.90;;;;;;5031169;28;20736;-59
2021/11/13 02:25:47;;;;;;;24.43;16.03;;;5.90;99.90;;;;;;5031453;28;20211;-59
2021/11/13 02:28:18;;;;;;;30.07;15.87;;;5.90;99.90;;;;;;5031125;28;20690;-58
2021/11/13 02:30:46;;;;;;;29.17;17.13;;;6.10;99.90;;;;;;5031111;28;20226;-59
2021/11/13 02:33:13;;;;;;;39.10;14.97;;;6.10;99.90;;;;;;5031233;28;20206;-59
2021/11/13 02:35:41;;;;;;;34.43;14.93;;;6.10;99.90;;;;;;5031229;28;20210;-59
2021/11/13 02:38:15;;;;;;;32.80;15.27;;;6.00;99.90;;;;;;5031086;28;20234;-58
2021/11/13 02:40:43;;;;;;;26.73;14.93;;;6.00;99.90;;;;;;5031474;28;20241;-58
2021/11/13 02:43:10;;;;;;;27.03;14.43;;;6.00;99.90;;;;;;5031457;28;20678;-59
2021/11/13 02:45:38;;;;;;;28.23;15.03;;;6.00;99.90;;;;;;5031044;28;20527;-58
2021/11/13 02:48:06;;;;;;;31.03;15.83;;;6.00;99.90;;;;;;5030966;28;20724;-58
2021/11/13 02:50:33;;;;;;;32.33;16.17;;;6.10;99.90;;;;;;5031118;28;20241;-59
2021/11/13 02:53:01;;;;;;;24.30;14.47;;;6.10;99.90;;;;;;5031343;28;20209;-59
2021/11/13 02:55:30;;;;;;;29.83;15.33;;;6.00;99.90;;;;;;5030908;28;20210;-58
2021/11/13 02:57:57;;;;;;;29.27;15.40;;;6.10;99.90;;;;;;5030960;28;20286;-58
2021/11/13 03:00:28;;;;;;;25.53;15.27;;;6.10;99.90;;;;;;5030739;28;20225;-58
2021/11/13 03:02:56;;;;;;;25.67;15.47;;;6.10;99.90;;;;;;5031153;28;20209;-59
2021/11/13 03:05:25;;;;;;;23.93;14.63;;;6.00;99.90;;;;;;5031202;28;20206;-59
2021/11/13 03:07:53;;;;;;;34.90;15.83;;;6.00;99.90;;;;;;5031257;28;20206;-59
2021/11/13 03:10:20;;;;;;;27.50;14.53;;;6.00;99.90;;;;;;5031387;28;20241;-59
2021/11/13 03:12:48;;;;;;;21.07;14.57;;;5.90;99.90;;;;;;5031170;28;20206;-59
2021/11/13 03:15:18;;;;;;;22.97;13.90;;;5.90;99.90;;;;;;5031121;28;20213;-59
2021/11/13 03:17:45;;;;;;;29.27;14.20;;;5.90;99.90;;;;;;5031002;28;20249;-59
2021/11/13 03:20:15;;;;;;;28.57;14.47;;;5.80;99.90;;;;;;5030818;28;20261;-58
2021/11/13 03:22:42;;;;;;;30.67;14.83;;;5.70;99.90;;;;;;5032112;28;20213;-58
2021/11/13 03:25:11;;;;;;;25.07;14.57;;;5.70;99.90;;;;;;5034717;28;20206;-58
2021/11/13 03:27:39;;;;;;;24.07;13.43;;;5.70;99.90;;;;;;5034665;28;20199;-58
2021/11/13 03:30:09;;;;;;;21.60;13.37;;;5.70;99.90;;;;;;5035060;28;20237;-58
2021/11/13 03:32:36;;;;;;;29.60;12.97;;;5.70;99.90;;;;;;5034843;28;20214;-58
2021/11/13 03:35:03;;;;;;;30.07;12.90;;;5.70;99.90;;;;;;5034548;28;20213;-58
2021/11/13 03:37:31;;;;;;;21.83;12.90;;;5.70;99.90;;;;;;5034610;28;20222;-58
2021/11/13 03:39:58;;;;;;;27.43;12.63;;;5.70;99.90;;;;;;5034092;28;20241;-58
2021/11/13 03:42:29;;;;;;;22.57;12.60;;;5.60;99.90;;;;;;5034244;28;20206;-58
2021/11/13 03:44:57;;;;;;;19.17;13.07;;;5.70;99.90;;;;;;5034003;28;20210;-58
2021/11/13 03:47:25;;;;;;;28.03;13.43;;;5.70;99.90;;;;;;5034379;28;20210;-58
2021/11/13 03:49:52;;;;;;;27.67;12.20;;;5.70;99.90;;;;;;5034167;28;20605;-58
2021/11/13 03:52:19;;;;;;;24.23;12.03;;;5.70;99.90;;;;;;5033953;28;20210;-58
2021/11/13 03:54:45;;;;;;;33.30;12.13;;;5.50;99.90;;;;;;5034057;28;20206;-58
2021/11/13 03:57:12;;;;;;;17.97;10.83;;;5.30;99.90;;;;;;5034082;28;20210;-58
2021/11/13 03:59:39;;;;;;;11.50;9.97;;;5.20;99.90;;;;;;5033774;28;20230;-58
2021/11/13 04:02:10;;;;;;;13.80;10.10;;;4.90;99.90;;;;;;5033747;28;20206;-58
2021/11/13 04:04:38;;;;;;;11.13;9.30;;;4.70;99.90;;;;;;5033697;28;20206;-58
2021/11/13 04:07:05;;;;;;;12.33;10.00;;;4.60;99.90;;;;;;5033980;28;20591;-58
2021/11/13 04:09:31;;;;;;;17.93;10.93;;;4.50;99.90;;;;;;5033715;28;20559;-58
2021/11/13 04:12:03;;;;;;;12.73;10.73;;;4.30;99.90;;;;;;5034055;28;20209;-58
2021/11/13 04:14:30;;;;;;;11.30;10.10;;;4.20;99.90;;;;;;5033837;28;20260;-58
2021/11/13 04:16:57;;;;;;;11.80;10.33;;;4.20;99.90;;;;;;5033829;28;20210;-58
2021/11/13 04:19:23;;;;;;;13.70;11.50;;;4.20;99.90;;;;;;5035016;28;20625;-59
2021/11/13 04:21:51;;;;;;;17.93;10.90;;;4.30;99.90;;;;;;5035159;28;20206;-59
2021/11/13 04:24:18;;;;;;;17.83;11.70;;;4.50;99.90;;;;;;5033789;28;20217;-59
2021/11/13 04:26:45;;;;;;;18.03;11.03;;;4.60;99.90;;;;;;5033577;28;20210;-59
2021/11/13 04:29:12;;;;;;;12.70;10.73;;;4.50;99.90;;;;;;5033384;28;20233;-59
2021/11/13 04:31:38;;;;;;;12.53;10.43;;;4.50;99.90;;;;;;5033435;28;20214;-59
2021/11/13 04:34:13;;;;;;;11.63;10.43;;;4.40;99.90;;;;;;5031949;28;20210;-58
2021/11/13 04:36:44;;;;;;;12.87;10.73;;;4.60;99.90;;;;;;5033692;28;20300;-57
2021/11/13 04:39:12;;;;;;;12.50;10.50;;;4.50;99.90;;;;;;5033307;28;20230;-59
2021/11/13 04:41:40;;;;;;;12.17;10.67;;;4.40;99.90;;;;;;5033265;28;20678;-56
2021/11/13 04:44:06;;;;;;;12.07;10.40;;;4.40;99.90;;;;;;5032911;28;20636;-58
2021/11/13 04:46:33;;;;;;;13.83;10.03;;;4.10;99.90;;;;;;5033462;28;20575;-58
2021/11/13 04:49:00;;;;;;;11.80;10.27;;;3.90;99.90;;;;;;5032984;28;20210;-57
2021/11/13 04:51:27;;;;;;;13.00;11.13;;;3.70;99.90;;;;;;5033096;28;20217;-59
2021/11/13 04:53:54;;;;;;;14.70;10.47;;;3.60;99.90;;;;;;5032887;28;20297;-57
2021/11/13 04:56:22;;;;;;;13.77;11.07;;;3.50;99.90;;;;;;5032740;28;20210;-58
2021/11/13 04:58:49;;;;;;;14.20;11.73;;;3.50;99.90;;;;;;5032706;28;20226;-58
2021/11/13 05:01:16;;;;;;;14.93;10.90;;;3.60;99.90;;;;;;5032661;28;20206;-58
2021/11/13 05:03:42;;;;;;;14.90;11.63;;;3.70;99.90;;;;;;5032966;28;20213;-58
2021/11/13 05:06:09;;;;;;;12.83;11.17;;;3.80;99.90;;;;;;5032847;28;20213;-58
2021/11/13 05:08:36;;;;;;;12.80;10.90;;;3.80;99.90;;;;;;5032550;28;20572;-58
2021/11/13 05:11:03;;;;;;;12.30;10.97;;;3.90;99.90;;;;;;5032701;28;20237;-59
2021/11/13 05:13:31;;;;;;;11.40;10.00;;;4.00;99.90;;;;;;5032412;28;20217;-58
2021/11/13 05:15:57;;;;;;;10.97;9.87;;;4.10;99.90;;;;;;5033087;28;20586;-59
2021/11/13 05:18:24;;;;;;;11.40;10.00;;;4.10;99.90;;;;;;5032478;28;20227;-58
2021/11/13 05:20:51;;;;;;;10.80;9.70;;;4.10;99.90;;;;;;5032953;28;20233;-57
2021/11/13 05:23:18;;;;;;;11.70;9.83;;;4.20;99.90;;;;;;5032839;28;20214;-58
2021/11/13 05:25:44;;;;;;;11.10;9.90;;;4.20;99.90;;;;;;5032043;28;20210;-57
2021/11/13 05:28:11;;;;;;;10.83;9.73;;;4.30;99.90;;;;;;5032257;28;20202;-57
2021/11/13 05:30:39;;;;;;;11.40;10.20;;;4.50;99.90;;;;;;5032078;28;20226;-57
2021/11/13 05:33:06;;;;;;;10.80;9.67;;;4.60;99.90;;;;;;5032228;28;20202;-57
2021/11/13 05:35:32;;;;;;;10.60;9.33;;;4.60;99.90;;;;;;5032068;28;20218;-57
2021/11/13 05:37:59;;;;;;;10.87;9.63;;;4.60;99.90;;;;;;5032067;28;20229;-57
2021/11/13 05:40:26;;;;;;;11.47;9.50;;;4.50;99.90;;;;;;5032203;28;20601;-57
2021/11/13 05:42:54;;;;;;;10.90;9.50;;;4.50;99.90;;;;;;5032035;28;20259;-58
2021/11/13 05:45:21;;;;;;;11.40;9.10;;;4.60;99.90;;;;;;5031502;28;20562;-57
2021/11/13 05:47:49;;;;;;;10.80;9.60;;;4.60;99.90;;;;;;5031824;28;20218;-57
2021/11/13 05:50:17;;;;;;;10.07;9.07;;;4.60;99.90;;;;;;5031800;28;20234;-58
2021/11/13 05:52:46;;;;;;;9.70;8.70;;;4.60;99.90;;;;;;5031856;28;20213;-57
2021/11/13 05:55:14;;;;;;;10.27;9.27;;;4.50;99.90;;;;;;5031373;28;20206;-57
2021/11/13 05:57:42;;;;;;;9.63;8.60;;;4.40;99.90;;;;;;5031803;28;20234;-57
2021/11/13 06:00:11;;;;;;;10.97;9.43;;;4.30;99.90;;;;;;5032184;28;20222;-58
2021/11/13 06:02:38;;;;;;;10.83;9.47;;;4.40;99.90;;;;;;5031724;28;20206;-58
2021/11/13 06:05:07;;;;;;;10.50;8.40;;;4.30;99.90;;;;;;5031458;28;20229;-57
2021/11/13 06:07:34;;;;;;;10.53;9.43;;;4.30;99.90;;;;;;5031472;28;20626;-58
2021/11/13 06:10:02;;;;;;;11.00;9.50;;;4.20;99.90;;;;;;5031416;28;20545;-58
2021/11/13 06:12:28;;;;;;;10.13;9.00;;;4.10;99.90;;;;;;5031537;28;20206;-58
2021/11/13 06:14:55;;;;;;;12.13;9.57;;;4.10;99.90;;;;;;5031327;28;20206;-58
2021/11/13 06:17:22;;;;;;;10.33;8.90;;;4.10;99.90;;;;;;5031415;28;20206;-58
2021/11/13 06:19:48;;;;;;;10.57;9.47;;;4.10;99.90;;;;;;5030992;28;20581;-58
2021/11/13 06:22:16;;;;;;;9.90;8.40;;;4.10;99.90;;;;;;5031190;28;20677;-58
2021/11/13 06:24:43;;;;;;;10.23;9.13;;;4.20;99.90;;;;;;5030800;28;20206;-58
2021/11/13 06:27:10;;;;;;;9.37;8.37;;;4.20;99.90;;;;;;5031268;28;20218;-58
2021/11/13 06:29:37;;;;;;;10.37;9.20;;;4.10;99.90;;;;;;5031304;28;20230;-58
2021/11/13 06:32:04;;;;;;;14.13;10.50;;;4.10;99.90;;;;;;5031505;28;20218;-58
2021/11/13 06:34:31;;;;;;;15.20;11.80;;;4.00;99.90;;;;;;5031858;28;20236;-57
2021/11/13 06:36:57;;;;;;;12.10;10.77;;;4.10;99.90;;;;;;5031071;28;20209;-57
2021/11/13 06:39:26;;;;;;;12.43;9.30;;;4.10;99.90;;;;;;5030817;28;20230;-57
2021/11/13 06:41:52;;;;;;;9.57;8.40;;;4.10;99.90;;;;;;5031310;28;20206;-57
2021/11/13 06:44:19;;;;;;;10.57;9.47;;;4.00;99.90;;;;;;5030707;28;20214;-57
2021/11/13 06:46:46;;;;;;;11.57;8.93;;;4.00;99.90;;;;;;5031001;28;20213;-57
2021/11/13 06:49:13;;;;;;;10.03;9.03;;;4.10;99.90;;;;;;5030857;28;20528;-57
2021/11/13 06:51:41;;;;;;;11.23;9.50;;;4.10;99.90;;;;;;5030766;28;20214;-57
2021/11/13 06:54:07;;;;;;;12.00;9.77;;;4.20;99.90;;;;;;5031026;28;20213;-57
2021/11/13 06:56:35;;;;;;;12.73;10.60;;;4.10;99.90;;;;;;5031001;28;20210;-57
2021/11/13 06:59:02;;;;;;;12.53;10.40;;;4.20;99.90;;;;;;5034357;28;20222;-57
2021/11/13 07:01:29;;;;;;;13.07;10.07;;;4.30;99.90;;;;;;5035672;28;20681;-58
2021/11/13 07:03:55;;;;;;;14.77;11.03;;;4.40;99.90;;;;;;5035181;28;20840;-57
2021/11/13 07:06:22;;;;;;;10.53;9.10;;;4.50;99.90;;;;;;5035164;28;20259;-57
2021/11/13 07:08:49;;;;;;;11.73;8.80;;;4.60;99.90;;;;;;5035095;28;20214;-57
2021/11/13 07:11:15;;;;;;;11.27;9.53;;;4.60;99.90;;;;;;5034900;28;20210;-57
2021/11/13 07:13:43;;;;;;;10.23;8.97;;;4.70;99.90;;;;;;5034752;28;20209;-58
2021/11/13 07:16:10;;;;;;;11.53;9.17;;;4.80;99.90;;;;;;5034689;28;20206;-58
2021/11/13 07:18:37;;;;;;;10.00;8.83;;;5.00;99.90;;;;;;5034300;28;20698;-58
2021/11/13 07:21:06;;;;;;;11.83;9.07;;;5.10;99.90;;;;;;5034819;28;20238;-59
2021/11/13 07:23:35;;;;;;;11.10;8.63;;;5.20;99.90;;;;;;5034646;28;20210;-58
2021/11/13 07:26:04;;;;;;;10.60;8.90;;;5.20;99.90;;;;;;5034709;28;20241;-58
2021/11/13 07:28:37;;;;;;;12.47;9.80;;;5.20;99.90;;;;;;5034387;28;20206;-58
2021/11/13 07:31:05;;;;;;;11.33;9.43;;;5.40;99.90;;;;;;5034359;28;20237;-58
2021/11/13 07:33:32;;;;;;;11.97;9.37;;;5.40;99.90;;;;;;5034404;28;20705;-58
2021/11/13 07:35:59;;;;;;;10.97;8.80;;;5.50;99.90;;;;;;5034479;28;20206;-57
2021/11/13 07:38:26;;;;;;;12.60;9.90;;;5.50;99.90;;;;;;5034299;28;20206;-60
2021/11/13 07:40:53;;;;;;;14.60;9.37;;;5.60;99.90;;;;;;5034579;28;20238;-58
2021/11/13 07:43:20;;;;;;;12.90;10.53;;;5.70;99.90;;;;;;5034148;28;20631;-58
2021/11/13 07:45:47;;;;;;;11.23;9.23;;;5.90;99.90;;;;;;5033759;28;20206;-59
2021/11/13 07:48:15;;;;;;;9.30;8.13;;;6.00;99.90;;;;;;5034318;28;20210;-59
2021/11/13 07:50:42;;;;;;;11.77;8.73;;;6.20;99.90;;;;;;5034071;28;20233;-58
2021/11/13 07:53:10;;;;;;;10.23;8.60;;;6.30;99.90;;;;;;5034598;28;20583;-60
2021/11/13 07:55:38;;;;;;;11.93;8.80;;;6.40;99.90;;;;;;5034017;28;20233;-58
2021/11/13 07:58:06;;;;;;;12.23;8.93;;;6.50;99.90;;;;;;5034057;28;20284;-59
2021/11/13 08:00:33;;;;;;;13.07;9.93;;;6.50;99.90;;;;;;5033515;28;20296;-59
2021/11/13 08:03:00;;;;;;;11.80;9.60;;;6.50;99.90;;;;;;5034207;28;20202;-59
2021/11/13 08:05:28;;;;;;;10.10;8.90;;;6.50;99.90;;;;;;5033801;28;20207;-59
2021/11/13 08:07:54;;;;;;;10.53;9.17;;;6.50;99.90;;;;;;5033974;28;20217;-58
2021/11/13 08:10:21;;;;;;;13.20;10.27;;;6.60;99.90;;;;;;5033801;28;20226;-61
2021/11/13 08:12:48;;;;;;;12.03;9.33;;;6.70;99.90;;;;;;5034046;28;20260;-63
2021/11/13 08:15:17;;;;;;;10.00;8.67;;;6.80;99.90;;;;;;5034306;28;20642;-60
2021/11/13 08:17:44;;;;;;;14.93;9.00;;;6.90;99.90;;;;;;5034030;28;20301;-59
2021/11/13 08:20:12;;;;;;;11.43;9.10;;;7.10;99.90;;;;;;5033604;28;20237;-59
2021/11/13 08:22:41;;;;;;;12.50;9.20;;;7.40;99.90;;;;;;5033926;28;20202;-59
2021/11/13 08:25:11;;;;;;;11.13;7.30;;;7.60;99.90;;;;;;5033778;28;20213;-60
2021/11/13 08:27:38;;;;;;;12.27;8.23;;;7.80;99.90;;;;;;5034128;28;20206;-59
2021/11/13 08:30:07;;;;;;;10.73;7.63;;;8.00;99.90;;;;;;5033877;28;20261;-60
2021/11/13 08:32:34;;;;;;;9.93;7.93;;;8.00;99.90;;;;;;5033574;28;20210;-60
2021/11/13 08:35:00;;;;;;;11.63;8.83;;;8.10;99.90;;;;;;5033498;28;20594;-60
2021/11/13 08:37:27;;;;;;;11.67;8.40;;;8.40;99.90;;;;;;5033537;28;20253;-60
2021/11/13 08:39:56;;;;;;;12.50;8.53;;;8.60;99.90;;;;;;5032972;28;20233;-61
2021/11/13 08:42:23;;;;;;;11.20;8.83;;;9.00;99.90;;;;;;5033558;28;20271;-60
2021/11/13 08:44:51;;;;;;;11.00;7.90;;;9.20;99.90;;;;;;5033123;28;20202;-60
2021/11/13 08:47:19;;;;;;;9.70;7.67;;;9.40;99.90;;;;;;5033188;28;20206;-60
2021/11/13 08:49:48;;;;;;;9.70;8.20;;;9.70;99.90;;;;;;5032970;28;20230;-62
2021/11/13 08:52:16;;;;;;;9.80;8.17;;;10.00;99.90;;;;;;5033646;28;20621;-60
2021/11/13 08:54:44;;;;;;;9.13;7.33;;;10.50;99.90;;;;;;5033011;28;20206;-60
2021/11/13 08:57:12;;;;;;;10.17;7.20;;;11.00;99.90;;;;;;5033121;28;20210;-60
2021/11/13 08:59:39;;;;;;;8.80;7.10;;;11.50;99.90;;;;;;5032525;28;20233;-60
2021/11/13 09:02:12;;;;;;;7.83;7.03;;;11.70;99.90;;;;;;5032883;28;20206;-60
2021/11/13 09:04:41;;;;;;;7.10;6.20;;;11.80;99.90;;;;;;5032799;28;20217;-58
2021/11/13 09:07:09;;;;;;;8.27;6.80;;;11.70;99.90;;;;;;5032485;28;20237;-59
2021/11/13 09:09:38;;;;;;;7.23;6.53;;;11.40;99.90;;;;;;5032618;28;20266;-59
2021/11/13 09:12:14;;;;;;;6.90;6.20;;;11.30;99.90;;;;;;5032814;28;20216;-59
2021/11/13 09:14:41;;;;;;;7.73;6.33;;;11.40;99.90;;;;;;5032461;28;20700;-60
2021/11/13 09:17:08;;;;;;;7.23;6.00;;;11.30;99.90;;;;;;5032686;28;20206;-59
2021/11/13 09:19:35;;;;;;;9.40;6.37;;;11.20;99.90;;;;;;5031941;28;20234;-63
2021/11/13 09:22:02;;;;;;;7.70;6.50;;;11.00;99.90;;;;;;5029390;28;20279;-64
2021/11/13 09:24:28;;;;;;;8.77;7.33;;;10.90;99.90;;;;;;5032730;28;20202;-62
2021/11/13 09:26:55;;;;;;;9.13;7.40;;;10.60;99.90;;;;;;5032624;28;20217;-61
2021/11/13 09:29:23;;;;;;;12.60;7.70;;;10.60;99.90;;;;;;5032712;28;20230;-60
2021/11/13 09:31:50;;;;;;;8.77;7.37;;;10.60;99.90;;;;;;5032466;28;20206;-60
2021/11/13 09:34:18;;;;;;;9.70;7.37;;;10.70;99.90;;;;;;5032217;28;20309;-60
2021/11/13 09:36:46;;;;;;;9.30;7.97;;;10.60;99.90;;;;;;5032230;28;20264;-60
2021/11/13 09:39:13;;;;;;;10.90;9.03;;;10.60;99.90;;;;;;5031698;28;20238;-61
2021/11/13 09:41:41;;;;;;;10.23;8.33;;;10.90;99.90;;;;;;5031901;28;20650;-60
2021/11/13 09:44:09;;;;;;;10.00;8.07;;;11.10;99.90;;;;;;5031995;28;20210;-61
2021/11/13 09:46:37;;;;;;;9.63;8.07;;;11.10;99.90;;;;;;5032020;28;20206;-62
2021/11/13 09:49:06;;;;;;;8.43;7.20;;;11.10;99.90;;;;;;5032349;28;20664;-61
2021/11/13 09:51:33;;;;;;;9.47;7.67;;;11.20;99.90;;;;;;5032129;28;20255;-60
2021/11/13 09:54:00;;;;;;;7.90;6.77;;;11.30;99.90;;;;;;5031917;28;20213;-62
2021/11/13 09:56:27;;;;;;;8.87;7.60;;;11.50;99.90;;;;;;5032033;28;20297;-60
2021/11/13 09:58:54;;;;;;;10.43;7.93;;;11.60;99.90;;;;;;5031904;28;20210;-64
2021/11/13 10:01:21;;;;;;;7.90;6.77;;;11.80;99.90;;;;;;5024958;28;20214;-60
2021/11/13 10:03:50;;;;;;;8.47;7.53;;;11.90;99.90;;;;;;5031310;28;20260;-64
2021/11/13 10:06:18;;;;;;;11.83;8.00;;;12.10;99.90;;;;;;5031798;28;20242;-62
2021/11/13 10:08:47;;;;;;;8.80;7.60;;;12.20;99.90;;;;;;5031617;28;20245;-62
2021/11/13 10:11:19;;;;;;;10.73;7.53;;;12.20;99.90;;;;;;5031467;28;20234;-62
2021/11/13 10:13:50;;;;;;;11.10;7.70;;;12.30;99.90;;;;;;5031293;28;20217;-62
2021/11/13 10:16:23;;;;;;;11.67;8.30;;;12.50;99.90;;;;;;5031846;28;20221;-62
2021/11/13 10:18:54;;;;;;;14.03;9.53;;;12.70;99.90;;;;;;5031265;28;20740;-62
2021/11/13 10:21:23;;;;;;;8.77;7.50;;;12.90;99.90;;;;;;5031278;28;20645;-61
2021/11/13 10:23:52;;;;;;;7.97;6.63;;;13.20;99.90;;;;;;5031499;28;20698;-60
2021/11/13 10:26:23;;;;;;;11.27;7.07;;;13.40;99.90;;;;;;5030887;28;20214;-61
2021/11/13 10:28:54;;;;;;;10.90;7.27;;;13.40;99.90;;;;;;5031752;28;20206;-61
2021/11/13 10:31:23;;;;;;;10.50;8.20;;;13.20;99.90;;;;;;5031362;28;20202;-62
2021/11/13 10:33:54;;;;;;;9.03;7.97;;;12.90;99.90;;;;;;5030760;28;20206;-62
2021/11/13 10:36:23;;;;;;;8.07;6.73;;;12.70;99.90;;;;;;5031596;28;20213;-61
2021/11/13 10:38:56;;;;;;;9.17;7.13;;;12.50;99.90;;;;;;5030897;28;20704;-61
2021/11/13 10:41:23;;;;;;;8.33;6.97;;;12.50;99.90;;;;;;5031132;28;20259;-62
2021/11/13 10:43:51;;;;;;;8.20;7.00;;;12.40;99.90;;;;;;5030794;28;20670;-61
2021/11/13 10:46:20;;;;;;;8.03;6.83;;;12.30;99.90;;;;;;5030782;28;20206;-61
2021/11/13 10:48:49;;;;;;;8.60;6.40;;;12.20;99.90;;;;;;5030826;28;20207;-61
2021/11/13 10:51:19;;;;;;;6.50;5.77;;;12.20;99.90;;;;;;5030809;28;20214;-61
2021/11/13 10:53:48;;;;;;;8.20;6.70;;;12.10;99.90;;;;;;5030958;28;20301;-62
2021/11/13 10:56:17;;;;;;;7.97;6.27;;;12.10;99.90;;;;;;5030750;28;20210;-60
2021/11/13 10:58:51;;;;;;;7.20;6.00;;;12.10;99.90;;;;;;5030465;28;20210;-63
2021/11/13 11:01:32;;;;;;;7.30;6.50;;;12.00;99.90;;;;;;5030775;28;20226;-63
2021/11/13 11:04:00;;;;;;;9.53;7.53;;;11.90;99.90;;;;;;5031309;28;20301;-60
2021/11/13 11:06:37;;;;;;;10.07;6.80;;;11.90;99.90;;;;;;5030944;28;20213;-60
2021/11/13 11:09:17;;;;;;;8.10;6.50;;;11.90;99.90;;;;;;5030735;28;20662;-60
2021/11/13 11:11:44;;;;;;;8.57;5.93;;;11.90;99.90;;;;;;5030841;28;20709;-60
2021/11/13 11:14:13;;;;;;;7.33;6.33;;;11.90;99.90;;;;;;5030487;28;20206;-60
2021/11/13 11:16:42;;;;;;;6.63;5.97;;;11.90;99.90;;;;;;5031048;28;20670;-60
2021/11/13 11:19:11;;;;;;;7.23;6.07;;;11.90;99.90;;;;;;5030944;28;20234;-62
2021/11/13 11:21:45;;;;;;;7.33;6.57;;;12.00;99.90;;;;;;5031020;28;20234;-61
2021/11/13 11:24:14;;;;;;;8.27;6.33;;;12.00;99.90;;;;;;5031079;28;20205;-61
2021/11/13 11:26:42;;;;;;;8.37;7.00;;;12.00;99.90;;;;;;5031175;28;20209;-61
2021/11/13 11:29:10;;;;;;;8.03;6.50;;;11.90;99.90;;;;;;5031172;28;20233;-60
2021/11/13 11:31:48;;;;;;;7.80;6.73;;;11.80;99.90;;;;;;5031102;28;20206;-60
2021/11/13 11:34:30;;;;;;;8.97;7.40;;;11.80;99.90;;;;;;5031184;28;20206;-59
2021/11/13 11:37:00;;;;;;;8.23;6.60;;;11.90;99.90;;;;;;5030808;28;20206;-60
2021/11/13 11:39:28;;;;;;;8.30;6.77;;;12.00;99.90;;;;;;5030857;28;20241;-60
2021/11/13 11:41:55;;;;;;;8.60;6.73;;;12.00;99.90;;;;;;5030839;28;20297;-61
2021/11/13 11:44:23;;;;;;;7.93;6.53;;;11.70;99.90;;;;;;5032674;28;20214;-61
2021/11/13 11:46:51;;;;;;;9.30;7.10;;;11.60;99.90;;;;;;5034255;28;20202;-61
2021/11/13 11:49:18;;;;;;;8.83;6.27;;;11.80;99.90;;;;;;5033972;28;20714;-59
2021/11/13 11:51:46;;;;;;;9.93;7.00;;;11.90;99.90;;;;;;5033967;28;20622;-61
2021/11/13 11:54:15;;;;;;;8.57;7.23;;;12.00;99.90;;;;;;5033539;28;20578;-61
2021/11/13 11:56:42;;;;;;;9.57;7.10;;;12.10;99.90;;;;;;5034090;28;20214;-61
2021/11/13 11:59:09;;;;;;;9.80;7.87;;;12.20;99.90;;;;;;5033819;28;20229;-61
2021/11/13 12:01:39;;;;;;;11.83;7.03;;;12.20;99.90;;;;;;5033887;28;20316;-61
2021/11/13 12:04:18;;;;;;;7.67;6.63;;;12.20;99.90;;;;;;5033499;28;20220;-61
2021/11/13 12:06:50;;;;;;;7.33;6.03;;;12.20;99.90;;;;;;5033885;28;20678;-61
2021/11/13 12:09:19;;;;;;;7.83;6.70;;;12.10;99.90;;;;;;5033501;28;20627;-60
2021/11/13 12:11:47;;;;;;;7.30;6.37;;;12.00;99.90;;;;;;5033773;28;20674;-60
2021/11/13 12:14:32;;;;;;;6.97;6.27;;;12.00;99.90;;;;;;5033654;28;20705;-60
2021/11/13 12:17:24;;;;;;;7.93;6.43;;;11.90;99.90;;;;;;5034059;28;20206;-60
2021/11/13 12:20:40;;;;;;;8.57;6.50;;;11.80;99.90;;;;;;5033719;28;20242;-60
2021/11/13 12:23:11;;;;;;;7.40;6.03;;;11.80;99.90;;;;;;5033647;28;20217;-59
2021/11/13 12:25:41;;;;;;;7.73;6.20;;;11.70;99.90;;;;;;5033666;28;20245;-60
2021/11/13 12:28:17;;;;;;;6.57;5.87;;;11.50;99.90;;;;;;5033250;28;20698;-60
2021/11/13 12:30:51;;;;;;;8.63;6.70;;;11.40;99.90;;;;;;5033190;28;20244;-61
2021/11/13 12:33:41;;;;;;;7.67;6.33;;;11.40;99.90;;;;;;5033420;28;20213;-61
2021/11/13 12:36:11;;;;;;;9.73;6.83;;;11.40;99.90;;;;;;5033192;28;20749;-61
2021/11/13 12:38:40;;;;;;;8.10;6.43;;;11.40;99.90;;;;;;5033417;28;20225;-61
2021/11/13 12:41:09;;;;;;;6.67;5.70;;;11.50;99.90;;;;;;5033185;28;20320;-61
2021/11/13 12:44:01;;;;;;;6.80;6.13;;;11.30;99.90;;;;;;5033055;28;20202;-60
2021/11/13 12:46:30;;;;;;;7.43;5.93;;;11.30;99.90;;;;;;5033204;28;20206;-60
2021/11/13 12:49:30;;;;;;;8.80;6.07;;;11.20;99.90;;;;;;5033086;28;20304;-60